createdAt,value
2019-01-23T00:54:21.632Z,31.87
2019-01-23T00:56:52.059Z,31.17
2019-01-23T00:59:22.502Z,31.77
2019-01-23T01:01:52.920Z,31.57
2019-01-23T01:04:23.298Z,29.20
2019-01-23T01:06:53.617Z,32.40
2019-01-23T01:09:24.018Z,31.20
2019-01-23T01:11:54.360Z,31.33
2019-01-23T01:14:24.738Z,31.70
2019-01-23T01:16:55.047Z,30.20
2019-01-23T01:19:25.467Z,30.87
2019-01-23T01:21:55.857Z,30.37
2019-01-23T01:24:26.310Z,31.97
2019-01-23T01:26:56.750Z,32.33
2019-01-23T01:29:27.182Z,32.73
2019-01-23T01:31:57.622Z,29.87
2019-01-23T01:34:28.107Z,34.47
2019-01-23T01:36:58.565Z,31.83
2019-01-23T01:39:29.005Z,32.83
2019-01-23T01:41:59.418Z,30.47
2019-01-23T01:44:29.884Z,31.70
2019-01-23T01:47:00.300Z,29.80
2019-01-23T01:49:30.730Z,31.23
2019-01-23T01:52:01.193Z,31.33
2019-01-23T01:54:31.708Z,32.37
2019-01-23T01:57:02.173Z,29.03
2019-01-23T01:59:32.629Z,31.33
2019-01-23T02:02:03.067Z,32.43
2019-01-23T02:04:33.522Z,29.27
2019-01-23T02:07:04.100Z,28.77
2019-01-23T02:09:35.585Z,29.23
2019-01-23T02:12:06.256Z,32.30
2019-01-23T02:14:36.701Z,28.37
2019-01-23T02:17:07.116Z,30.17
2019-01-23T02:19:37.573Z,29.90
2019-01-23T02:22:07.979Z,30.90
2019-01-23T02:24:38.423Z,31.30
2019-01-23T02:27:08.841Z,28.10
2019-01-23T02:29:39.277Z,29.60
2019-01-23T02:32:09.691Z,31.53
2019-01-23T02:34:40.135Z,33.03
2019-01-23T02:37:10.541Z,28.97
2019-01-23T02:39:40.999Z,30.87
2019-01-23T02:42:11.465Z,29.93
2019-01-23T02:44:41.914Z,31.23
2019-01-23T02:47:12.337Z,31.73
2019-01-23T02:49:42.791Z,30.53
2019-01-23T02:52:13.196Z,30.97
2019-01-23T02:54:43.685Z,33.07
2019-01-23T02:57:14.117Z,32.00
2019-01-23T02:59:44.552Z,30.27
2019-01-23T03:02:14.977Z,33.17
2019-01-23T03:04:45.392Z,29.80
2019-01-23T03:07:15.807Z,33.50
2019-01-23T03:09:46.231Z,30.40
2019-01-23T03:12:16.684Z,30.93
2019-01-23T03:14:47.108Z,28.40
2019-01-23T03:17:17.549Z,35.70
2019-01-23T03:19:48.051Z,29.80
2019-01-23T03:22:18.475Z,30.20
2019-01-23T03:24:49.009Z,29.47
2019-01-23T03:27:19.439Z,32.93
2019-01-23T03:29:49.911Z,29.97
2019-01-23T03:32:20.431Z,30.57
2019-01-23T03:34:50.861Z,33.33
2019-01-23T03:37:21.342Z,32.23
2019-01-23T03:39:51.765Z,30.57
2019-01-23T03:42:22.201Z,31.20
2019-01-23T03:44:52.631Z,27.57
2019-01-23T03:47:23.090Z,31.33
2019-01-23T03:49:53.497Z,29.83
2019-01-23T03:52:23.937Z,31.40
2019-01-23T03:54:54.550Z,29.70
2019-01-23T03:57:25.062Z,29.13
2019-01-23T03:59:55.499Z,29.57
2019-01-23T04:02:25.949Z,31.10
2019-01-23T04:04:56.358Z,31.90
2019-01-23T04:07:26.803Z,29.17
2019-01-23T04:09:57.225Z,32.53
2019-01-23T04:12:27.660Z,30.87
2019-01-23T04:14:58.100Z,30.27
2019-01-23T04:17:28.800Z,34.10
2019-01-23T04:19:59.241Z,29.83
2019-01-23T04:22:29.701Z,31.10
2019-01-23T04:25:00.235Z,30.90
2019-01-23T04:27:30.657Z,32.20
2019-01-23T04:30:01.164Z,29.97
2019-01-23T04:32:31.606Z,29.00
2019-01-23T04:35:02.021Z,32.47
2019-01-23T04:37:32.552Z,29.63
2019-01-23T04:40:02.982Z,33.33
2019-01-23T04:42:33.463Z,29.33
2019-01-23T04:45:04.829Z,29.50
2019-01-23T04:47:35.323Z,30.07
2019-01-23T04:50:07.509Z,30.93
2019-01-23T04:52:56.884Z,31.37
2019-01-23T04:55:27.304Z,32.73
2019-01-23T04:57:57.774Z,30.43
2019-01-23T05:00:29.127Z,28.90
2019-01-23T05:02:59.544Z,30.73
2019-01-23T05:05:29.982Z,31.70
2019-01-23T05:08:00.491Z,29.70
2019-01-23T05:10:30.877Z,33.53
2019-01-23T05:13:01.373Z,32.20
2019-01-23T05:15:31.824Z,31.53
2019-01-23T05:18:02.258Z,32.53
2019-01-23T05:20:32.678Z,29.90
2019-01-23T05:23:03.161Z,31.23
2019-01-23T05:25:33.603Z,32.33
2019-01-23T05:28:04.236Z,28.80
2019-01-23T05:30:34.652Z,31.17
2019-01-23T05:33:05.113Z,31.13
2019-01-23T05:35:35.682Z,31.43
2019-01-23T05:38:06.162Z,33.43
2019-01-23T05:40:36.620Z,31.83
2019-01-23T05:43:07.151Z,31.17
2019-01-23T05:45:37.575Z,30.87
2019-01-23T05:48:08.024Z,32.33
2019-01-23T05:50:38.474Z,35.30
2019-01-23T05:53:08.934Z,35.37
2019-01-23T05:55:39.327Z,30.27
2019-01-23T05:58:10.241Z,32.57
2019-01-23T06:00:40.686Z,31.50
2019-01-23T06:03:11.143Z,35.60
2019-01-23T06:05:41.561Z,34.00
2019-01-23T06:08:12.018Z,32.30
2019-01-23T06:10:42.480Z,33.10
2019-01-23T06:13:12.968Z,31.57
2019-01-23T06:15:43.704Z,35.03
2019-01-23T06:18:14.147Z,31.13
2019-01-23T06:20:44.619Z,35.50
2019-01-23T06:23:15.152Z,32.40
2019-01-23T06:25:45.584Z,33.90
2019-01-23T06:28:16.002Z,33.00
2019-01-23T06:30:46.513Z,31.60
2019-01-23T06:33:17.016Z,29.33
2019-01-23T06:35:47.811Z,34.53
2019-01-23T06:38:18.243Z,33.20
2019-01-23T06:40:48.693Z,29.83
2019-01-23T06:43:19.106Z,30.67
2019-01-23T06:45:49.629Z,31.70
2019-01-23T06:48:20.232Z,37.37
2019-01-23T06:50:50.732Z,32.10
2019-01-23T06:53:21.165Z,31.83
2019-01-23T06:55:51.649Z,32.40
2019-01-23T06:58:22.119Z,35.03
2019-01-23T07:00:52.605Z,36.67
2019-01-23T07:03:23.015Z,34.93
2019-01-23T07:05:53.478Z,36.40
2019-01-23T07:08:24.002Z,32.20
2019-01-23T07:10:54.458Z,32.97
2019-01-23T07:13:24.913Z,34.47
2019-01-23T07:15:55.372Z,39.97
2019-01-23T07:18:25.797Z,43.80
2019-01-23T07:20:56.420Z,37.00
2019-01-23T07:23:26.847Z,37.40
2019-01-23T07:25:57.351Z,40.47
2019-01-23T07:28:27.823Z,42.03
2019-01-23T07:30:58.259Z,36.23
2019-01-23T07:33:28.734Z,34.73
2019-01-23T07:35:59.178Z,38.80
2019-01-23T07:38:29.678Z,33.67
2019-01-23T07:41:00.128Z,35.90
2019-01-23T07:43:30.583Z,38.37
2019-01-23T07:46:01.006Z,40.23
2019-01-23T07:48:31.440Z,44.90
2019-01-23T07:51:01.901Z,42.67
2019-01-23T07:53:32.321Z,41.90
2019-01-23T07:56:02.841Z,37.50
2019-01-23T07:58:33.238Z,42.07
2019-01-23T08:01:03.708Z,46.23
2019-01-23T08:03:34.126Z,43.60
2019-01-23T08:06:04.598Z,41.10
2019-01-23T08:08:35.033Z,43.83
2019-01-23T08:11:05.487Z,40.60
2019-01-23T08:13:35.946Z,45.50
2019-01-23T08:16:06.427Z,41.73
2019-01-23T08:18:36.875Z,45.90
2019-01-23T08:21:07.330Z,43.50
2019-01-23T08:23:37.768Z,43.90
2019-01-23T08:26:08.223Z,46.40
2019-01-23T08:28:38.756Z,45.63
2019-01-23T08:31:09.254Z,44.73
2019-01-23T08:33:39.663Z,45.20
2019-01-23T08:36:10.153Z,42.40
2019-01-23T08:38:40.631Z,44.77
2019-01-23T08:41:11.057Z,45.73
2019-01-23T08:43:41.501Z,46.23
2019-01-23T08:46:11.988Z,45.73
2019-01-23T08:48:42.431Z,43.00
2019-01-23T08:51:12.870Z,44.97
2019-01-23T08:53:43.352Z,47.17
2019-01-23T08:56:13.798Z,44.03
2019-01-23T08:58:44.236Z,40.97
2019-01-23T09:01:14.685Z,42.90
2019-01-23T09:03:45.103Z,45.10
2019-01-23T09:06:15.612Z,46.13
2019-01-23T09:08:46.154Z,44.20
2019-01-23T09:11:16.617Z,44.00
2019-01-23T09:13:47.036Z,42.00
2019-01-23T09:16:17.553Z,44.43
2019-01-23T09:18:47.975Z,43.03
2019-01-23T09:21:18.458Z,43.13
2019-01-23T09:23:48.898Z,37.67
2019-01-23T09:26:19.352Z,41.37
2019-01-23T09:28:49.791Z,39.97
2019-01-23T09:32:05.328Z,38.00
2019-01-23T09:35:11.611Z,39.80
2019-01-23T09:38:49.363Z,38.27
2019-01-23T09:41:52.747Z,39.53
2019-01-23T09:45:49.640Z,41.00
2019-01-23T09:49:17.007Z,41.80
2019-01-23T09:53:11.986Z,35.73
2019-01-23T09:55:42.527Z,40.63
2019-01-23T09:58:13.283Z,39.73
2019-01-23T10:00:43.765Z,39.47
2019-01-23T10:03:14.174Z,33.77
2019-01-23T10:05:44.641Z,38.13
2019-01-23T10:08:15.097Z,33.03
2019-01-23T10:10:45.535Z,37.80
2019-01-23T10:13:15.988Z,39.50
2019-01-23T10:16:04.429Z,32.13
2019-01-23T10:18:34.850Z,34.33
2019-01-23T10:21:05.299Z,31.40
2019-01-23T10:23:35.695Z,34.70
2019-01-23T10:26:06.383Z,30.43
2019-01-23T10:28:36.815Z,33.20
2019-01-23T10:31:07.264Z,31.67
2019-01-23T10:33:37.686Z,32.63
2019-01-23T10:36:08.596Z,29.80
2019-01-23T10:38:39.036Z,29.50
2019-01-23T10:41:09.555Z,32.07
2019-01-23T10:43:39.952Z,30.93
2019-01-23T10:46:10.391Z,30.67
2019-01-23T10:48:40.875Z,29.73
2019-01-23T10:51:11.364Z,29.67
2019-01-23T10:53:41.908Z,30.87
2019-01-23T10:56:12.393Z,29.13
2019-01-23T10:58:42.817Z,26.13
2019-01-23T11:01:13.561Z,30.93
2019-01-23T11:03:43.994Z,30.83
2019-01-23T11:06:14.452Z,27.33
2019-01-23T11:08:44.884Z,25.17
2019-01-23T11:11:15.366Z,27.03
2019-01-23T11:13:45.807Z,28.40
2019-01-23T11:16:16.255Z,26.93
2019-01-23T11:18:46.667Z,27.57
2019-01-23T11:21:17.734Z,28.30
2019-01-23T11:23:48.269Z,25.77
2019-01-23T11:26:19.222Z,36.53
2019-01-23T11:28:49.791Z,37.70
2019-01-23T11:31:20.668Z,34.53
2019-01-23T11:33:51.125Z,37.07
2019-01-23T11:36:21.571Z,41.80
2019-01-23T11:38:52.648Z,44.93
2019-01-23T11:41:23.299Z,43.30
2019-01-23T11:43:53.749Z,45.73
2019-01-23T11:46:24.231Z,40.83
2019-01-23T11:48:54.714Z,41.77
2019-01-23T11:51:25.163Z,40.73
2019-01-23T11:53:55.568Z,43.27
2019-01-23T11:56:26.032Z,43.57
2019-01-23T11:58:56.515Z,46.77
2019-01-23T12:01:27.611Z,43.10
2019-01-23T12:03:58.363Z,40.87
2019-01-23T12:06:28.617Z,37.67
2019-01-23T12:08:59.141Z,43.17
2019-01-23T12:11:29.624Z,46.30
2019-01-23T12:14:00.079Z,44.63
2019-01-23T12:16:30.660Z,41.93
2019-01-23T12:19:01.408Z,42.37
2019-01-23T12:21:31.969Z,40.63
2019-01-23T12:24:02.463Z,42.23
2019-01-23T12:26:32.996Z,39.20
2019-01-23T12:29:03.460Z,41.03
2019-01-23T12:31:35.195Z,37.93
2019-01-23T12:34:06.119Z,39.70
2019-01-23T12:36:36.612Z,37.33
2019-01-23T12:39:09.480Z,35.17
2019-01-23T12:41:39.952Z,38.53
2019-01-23T12:44:10.700Z,39.93
2019-01-23T12:46:41.232Z,35.50
2019-01-23T12:49:11.668Z,37.03
2019-01-23T12:51:42.105Z,36.80
2019-01-23T12:54:12.546Z,36.23
2019-01-23T12:56:43.047Z,36.40
2019-01-23T12:59:13.536Z,35.43
2019-01-23T13:01:44.076Z,36.50
2019-01-23T13:04:14.553Z,37.43
2019-01-23T13:06:45.083Z,37.37
2019-01-23T13:09:15.595Z,37.13
2019-01-23T13:11:46.071Z,34.57
2019-01-23T13:14:16.628Z,32.30
2019-01-23T13:16:47.113Z,30.40
2019-01-23T13:19:17.599Z,35.87
2019-01-23T13:21:48.126Z,33.87
2019-01-23T13:24:18.582Z,31.03
2019-01-23T13:26:49.066Z,35.70
2019-01-23T13:29:19.530Z,33.53
2019-01-23T13:31:50.043Z,31.07
2019-01-23T13:34:20.533Z,33.07
2019-01-23T13:36:50.967Z,31.60
2019-01-23T13:39:21.742Z,30.90
2019-01-23T13:41:52.233Z,31.47
2019-01-23T13:44:22.678Z,31.17
2019-01-23T13:46:53.213Z,34.47
2019-01-23T13:49:23.674Z,29.53
2019-01-23T13:51:54.249Z,27.07
2019-01-23T13:54:24.781Z,57.83
2019-01-23T13:56:55.259Z,86.43
2019-01-23T13:59:25.762Z,91.47
2019-01-23T14:01:56.648Z,96.60
2019-01-23T14:04:27.190Z,91.17
2019-01-23T14:06:57.742Z,110.20
2019-01-23T14:09:28.213Z,109.53
2019-01-23T14:11:58.750Z,113.17
2019-01-23T14:14:29.339Z,111.20
2019-01-23T14:16:59.940Z,114.50
2019-01-23T14:19:30.384Z,111.73
2019-01-23T14:22:00.859Z,120.70
2019-01-23T14:24:31.293Z,104.77
2019-01-23T14:27:01.812Z,114.90
2019-01-23T14:29:32.204Z,124.03
2019-01-23T14:32:03.570Z,115.00
2019-01-23T14:34:34.109Z,107.80
2019-01-23T14:37:04.742Z,122.07
2019-01-23T14:39:35.172Z,123.27
2019-01-23T14:42:06.682Z,128.07
2019-01-23T14:44:37.168Z,128.33
2019-01-23T14:47:07.725Z,133.93
2019-01-23T14:49:38.218Z,135.73
2019-01-23T14:52:08.899Z,137.73
2019-01-23T14:54:39.397Z,134.13
2019-01-23T14:57:09.875Z,133.70
2019-01-23T14:59:40.301Z,141.00
2019-01-23T15:02:10.754Z,152.73
2019-01-23T15:04:41.176Z,148.77
2019-01-23T15:07:11.658Z,141.03
2019-01-23T15:09:42.098Z,147.20
2019-01-23T15:12:12.546Z,137.87
2019-01-23T15:14:43.011Z,141.73
2019-01-23T15:17:13.477Z,151.17
2019-01-23T15:19:43.885Z,142.87
2019-01-23T15:22:14.407Z,142.57
2019-01-23T15:24:44.846Z,134.30
2019-01-23T15:27:15.341Z,134.77
2019-01-23T15:29:45.797Z,136.07
2019-01-23T15:32:17.480Z,154.17
2019-01-23T15:34:48.096Z,151.10
2019-01-23T15:37:18.552Z,166.53
2019-01-23T15:39:49.297Z,148.60
2019-01-23T15:42:19.800Z,150.23
2019-01-23T15:44:50.237Z,156.70
2019-01-23T15:47:21.293Z,141.17
2019-01-23T15:52:58.969Z,142.53
2019-01-23T15:55:30.455Z,149.43
2019-01-23T15:58:01.244Z,139.97
2019-01-23T16:00:33.716Z,144.00
2019-01-23T16:05:52.480Z,123.27
2019-01-23T16:11:08.636Z,139.27
2019-01-23T16:13:42.379Z,128.93
2019-01-23T16:16:11.534Z,132.80
2019-01-23T16:18:42.087Z,129.57
2019-01-23T16:21:12.593Z,125.47
2019-01-23T16:23:43.082Z,126.13
2019-01-23T16:26:13.553Z,131.90
2019-01-23T16:28:44.038Z,127.83
2019-01-23T16:31:14.506Z,113.17
2019-01-23T16:33:45.013Z,127.37
2019-01-23T16:36:15.508Z,127.80
2019-01-23T16:38:46.118Z,138.50
2019-01-23T16:41:16.707Z,126.20
2019-01-23T16:43:47.339Z,123.07
2019-01-23T16:46:17.893Z,124.47
2019-01-23T16:48:48.486Z,112.33
2019-01-23T16:51:18.946Z,111.43
2019-01-23T16:53:49.500Z,116.90
2019-01-23T16:56:20.032Z,114.40
2019-01-23T16:58:50.624Z,115.20
2019-01-23T17:01:21.433Z,108.13
2019-01-23T17:03:51.999Z,99.70
2019-01-23T17:06:22.500Z,101.93
2019-01-23T17:08:53.135Z,106.50
2019-01-23T17:11:23.642Z,105.23
2019-01-23T17:13:54.109Z,100.90
2019-01-23T17:16:24.590Z,98.63
2019-01-23T17:18:55.170Z,106.17
2019-01-23T17:21:25.654Z,101.83
2019-01-23T17:23:56.149Z,106.50
2019-01-23T17:26:26.695Z,100.50
2019-01-23T17:28:57.144Z,86.37
2019-01-23T17:31:27.600Z,95.67
2019-01-23T17:33:58.073Z,109.23
2019-01-23T17:36:28.660Z,100.57
2019-01-23T17:38:59.592Z,93.63
2019-01-23T17:41:30.210Z,93.37
2019-01-23T17:44:02.244Z,117.67
2019-01-23T17:46:32.808Z,98.20
2019-01-23T17:49:03.346Z,110.53
2019-01-23T17:51:33.772Z,91.53
2019-01-23T17:54:04.443Z,89.63
2019-01-23T17:56:34.940Z,98.73
2019-01-23T17:59:06.269Z,94.17
2019-01-23T18:01:36.703Z,78.33
2019-01-23T18:04:07.244Z,83.70
2019-01-23T18:06:37.725Z,92.20
2019-01-23T18:09:11.630Z,86.93
2019-01-23T18:11:42.391Z,89.60
2019-01-23T18:14:13.014Z,85.70
2019-01-23T18:16:43.573Z,86.53
2019-01-23T18:19:14.001Z,85.57
2019-01-23T18:21:44.577Z,82.27
2019-01-23T18:24:15.085Z,85.33
2019-01-23T18:26:45.629Z,80.93
2019-01-23T18:29:16.216Z,75.33
2019-01-23T18:32:18.261Z,71.90
2019-01-23T18:35:37.768Z,76.60
2019-01-23T18:38:30.165Z,72.87
2019-01-23T18:41:57.228Z,72.37
2019-01-23T18:45:31.708Z,76.50
2019-01-23T18:49:04.864Z,65.63
2019-01-23T18:51:50.209Z,69.80
2019-01-23T18:54:20.827Z,68.90
2019-01-23T18:56:51.445Z,72.27
2019-01-23T18:59:22.032Z,70.03
2019-01-23T19:01:52.505Z,60.43
2019-01-23T19:04:23.144Z,66.93
2019-01-23T19:06:53.705Z,63.00
2019-01-23T19:09:24.346Z,62.07
2019-01-23T19:11:54.965Z,63.90
2019-01-23T19:14:25.535Z,62.10
2019-01-23T19:16:56.070Z,60.17
2019-01-23T19:19:26.540Z,59.53
2019-01-23T19:21:58.626Z,60.63
2019-01-23T19:24:29.068Z,53.20
2019-01-23T19:26:59.563Z,60.67
2019-01-23T19:29:30.187Z,59.27
2019-01-23T19:32:00.647Z,58.43
2019-01-23T19:34:31.192Z,58.00
2019-01-23T19:37:01.650Z,58.30
2019-01-23T19:39:32.120Z,65.33
2019-01-23T19:42:02.719Z,63.67
2019-01-23T19:44:33.168Z,58.83
2019-01-23T19:47:03.611Z,60.27
2019-01-23T19:49:34.256Z,58.80
2019-01-23T19:52:04.911Z,57.90
2019-01-23T19:54:35.366Z,58.13
2019-01-23T19:57:06.185Z,58.67
2019-01-23T19:59:36.714Z,67.47
2019-01-23T20:02:07.442Z,67.23
2019-01-23T20:04:37.939Z,61.13
2019-01-23T20:07:08.427Z,58.17
2019-01-23T20:09:38.872Z,62.10
2019-01-23T20:12:15.449Z,58.27
2019-01-23T20:14:41.575Z,55.67
2019-01-23T20:17:12.033Z,59.27
2019-01-23T20:19:42.544Z,59.70
2019-01-23T20:22:13.160Z,57.07
2019-01-23T20:24:43.746Z,65.37
2019-01-23T20:27:14.231Z,61.67
2019-01-23T20:29:44.734Z,58.33
2019-01-23T20:32:15.222Z,58.07
2019-01-23T20:34:45.831Z,57.50
2019-01-23T20:37:16.299Z,60.60
2019-01-23T20:39:46.877Z,59.47
2019-01-23T20:42:17.394Z,58.17
2019-01-23T20:44:48.264Z,66.37
2019-01-23T20:47:19.209Z,58.50
2019-01-23T20:49:49.721Z,58.00
2019-01-23T20:52:20.257Z,57.80
2019-01-23T20:54:50.813Z,58.47
2019-01-23T20:57:21.622Z,53.03
2019-01-23T20:59:52.126Z,54.50
2019-01-23T21:02:22.713Z,59.13
2019-01-23T21:04:53.242Z,57.67
2019-01-23T21:07:23.821Z,58.07
2019-01-23T21:09:54.318Z,56.70
2019-01-23T21:12:24.853Z,55.10
2019-01-23T21:14:55.360Z,56.53
2019-01-23T21:17:26.045Z,55.63
2019-01-23T21:19:56.500Z,56.10
2019-01-23T21:22:30.254Z,60.83
2019-01-23T21:25:00.689Z,58.33
2019-01-23T21:27:33.821Z,51.20
2019-01-23T21:30:05.460Z,57.60
2019-01-23T21:32:36.188Z,51.03
2019-01-23T21:35:07.616Z,52.30
2019-01-23T21:37:38.063Z,55.00
2019-01-23T21:40:14.204Z,52.63
2019-01-23T21:42:44.769Z,53.20
2019-01-23T21:45:15.567Z,59.10
2019-01-23T21:47:46.204Z,56.63
2019-01-23T21:50:18.958Z,55.87
2019-01-23T21:52:49.442Z,64.57
2019-01-23T21:55:22.825Z,56.93
2019-01-23T21:57:53.740Z,55.17
2019-01-23T22:00:49.017Z,61.30
2019-01-23T22:03:19.521Z,56.43
2019-01-23T22:05:50.141Z,51.53
2019-01-23T22:08:20.719Z,54.00
2019-01-23T22:10:51.257Z,57.03
2019-01-23T22:13:22.038Z,57.43
2019-01-23T22:15:52.542Z,54.23
2019-01-23T22:18:23.122Z,55.37
2019-01-23T22:20:53.751Z,51.87
2019-01-23T22:23:24.290Z,59.10
2019-01-23T22:25:54.853Z,58.47
2019-01-23T22:28:25.485Z,50.53
2019-01-23T22:30:56.043Z,59.03
2019-01-23T22:33:26.638Z,57.60
2019-01-23T22:35:57.111Z,56.83
2019-01-23T22:38:27.636Z,57.90
2019-01-23T22:40:58.156Z,56.37
2019-01-23T22:43:28.753Z,49.70
2019-01-23T22:45:59.911Z,53.60
2019-01-23T22:48:31.738Z,55.17
2019-01-23T22:51:02.392Z,53.70
2019-01-23T22:53:33.031Z,51.27
2019-01-23T22:56:03.534Z,52.73
2019-01-23T22:58:34.074Z,52.87
2019-01-23T23:01:17.899Z,54.90
2019-01-23T23:03:48.615Z,56.20
2019-01-23T23:06:19.128Z,54.47
2019-01-23T23:08:50.603Z,48.67
2019-01-23T23:11:21.148Z,53.90
2019-01-23T23:13:51.643Z,51.60
2019-01-23T23:16:22.254Z,55.53
2019-01-23T23:18:52.810Z,54.33
2019-01-23T23:21:23.349Z,51.77
2019-01-23T23:23:53.809Z,52.23
2019-01-23T23:26:24.224Z,54.93
2019-01-23T23:28:54.746Z,54.70
2019-01-23T23:31:25.194Z,55.20
2019-01-23T23:33:55.780Z,52.93
2019-01-23T23:36:26.216Z,52.30
2019-01-23T23:38:56.697Z,53.17
2019-01-23T23:41:27.132Z,51.70
2019-01-23T23:43:57.561Z,51.43
2019-01-23T23:47:16.437Z,53.43
2019-01-23T23:49:46.876Z,51.90
2019-01-23T23:52:17.316Z,52.27
2019-01-23T23:54:47.721Z,48.60
2019-01-23T23:57:18.240Z,48.00
2019-01-23T23:59:48.717Z,51.97
